Time;durP1;ratioP1;P1;durP2;ratioP2;P2;SDS_P1;SDS_P2;PMS_P1;PMS_P2;Temp;Humidity;BMP_temperature;BMP_pressure;BME280_temperature;BME280_humidity;BME280_pressure;Samples;Min_cycle;Max_cycle;Signal;HPM_P1;HPM_P2
2022/02/07 00:01:15;;;;;;;243.80;89.32;;;8.40;99.90;;;;;;4895894;29;20096;-80
2022/02/07 00:03:52;;;;;;;248.77;86.80;;;8.40;99.90;;;;;;4882901;29;20520;-81
2022/02/07 00:06:17;;;;;;;238.98;88.72;;;8.40;99.90;;;;;;4897684;29;20027;-80
2022/02/07 00:08:43;;;;;;;252.98;90.20;;;8.40;99.90;;;;;;4898421;29;20028;-80
2022/02/07 00:11:12;;;;;;;253.32;90.07;;;8.40;99.90;;;;;;4897091;29;20028;-80
2022/02/07 00:13:38;;;;;;;243.95;89.53;;;8.40;99.90;;;;;;4896870;29;20021;-81
2022/02/07 00:16:04;;;;;;;256.85;89.22;;;8.40;99.90;;;;;;4896899;29;20035;-80
2022/02/07 00:18:30;;;;;;;264.30;93.10;;;8.40;99.90;;;;;;4895335;29;20049;-80
2022/02/07 00:20:57;;;;;;;272.05;91.47;;;8.40;99.90;;;;;;4896643;29;20031;-80
2022/02/07 00:23:23;;;;;;;281.10;93.57;;;8.40;99.90;;;;;;4895862;29;20041;-82
2022/02/07 00:25:49;;;;;;;274.98;92.60;;;8.40;99.90;;;;;;4896768;29;20031;-83
2022/02/07 00:28:15;;;;;;;278.15;94.85;;;8.40;99.90;;;;;;4896726;29;20029;-81
2022/02/07 00:30:40;;;;;;;270.25;97.43;;;8.40;99.90;;;;;;4895942;29;20029;-82
2022/02/07 00:33:06;;;;;;;291.95;98.45;;;8.40;99.90;;;;;;4897219;29;20032;-82
2022/02/07 00:35:32;;;;;;;296.05;99.88;;;8.30;99.90;;;;;;4880187;29;20070;-80
2022/02/07 00:38:03;;;;;;;290.70;97.18;;;8.30;99.90;;;;;;4896679;29;20029;-80
2022/02/07 00:40:43;;;;;;;297.60;97.10;;;8.30;99.90;;;;;;4897318;29;20056;-79
2022/02/07 00:43:28;;;;;;;319.90;99.18;;;8.30;99.90;;;;;;4896437;29;20378;-80
2022/02/07 00:45:59;;;;;;;319.02;99.20;;;8.30;99.90;;;;;;4897070;29;20056;-81
2022/02/07 00:48:25;;;;;;;310.73;98.88;;;8.30;99.90;;;;;;4896903;29;20029;-79
2022/02/07 00:50:55;;;;;;;327.48;99.82;;;8.30;99.90;;;;;;4896660;29;20080;-80
2022/02/07 00:53:21;;;;;;;329.20;98.45;;;8.20;99.90;;;;;;4897169;29;20024;-80
2022/02/07 00:55:47;;;;;;;304.25;99.97;;;8.30;99.90;;;;;;4896579;29;20036;-81
2022/02/07 00:58:13;;;;;;;318.70;98.93;;;8.20;99.90;;;;;;4896484;29;20220;-84
2022/02/07 01:00:39;;;;;;;317.02;102.15;;;8.20;99.90;;;;;;4879812;29;20028;-81
2022/02/07 01:03:04;;;;;;;321.02;100.03;;;8.20;99.90;;;;;;4896345;29;20141;-81
2022/02/07 01:05:30;;;;;;;325.08;103.70;;;8.20;99.90;;;;;;4896743;29;20024;-80
2022/02/07 01:07:58;;;;;;;327.55;100.45;;;8.20;99.90;;;;;;4896347;29;20470;-83
2022/02/07 01:10:31;;;;;;;378.15;103.38;;;8.20;99.90;;;;;;4896244;29;20028;-81
2022/02/07 01:13:09;;;;;;;354.92;104.68;;;8.10;99.90;;;;;;4896093;29;20033;-83
2022/02/07 01:55:36;;;;;;;392.45;112.95;;;7.90;99.90;;;;;;4898804;29;20031;-84
2022/02/07 01:58:02;;;;;;;387.73;113.53;;;7.90;99.90;;;;;;4899173;29;20044;-82
2022/02/07 02:00:28;;;;;;;404.92;109.65;;;8.00;99.90;;;;;;4882898;29;20033;-80
2022/02/07 02:02:53;;;;;;;385.60;111.90;;;8.00;99.90;;;;;;4899251;29;20047;-81
2022/02/07 02:05:20;;;;;;;353.08;107.43;;;8.00;99.90;;;;;;4882062;29;20107;-81
2022/02/07 02:07:48;;;;;;;378.83;108.07;;;8.00;99.90;;;;;;4899368;29;20036;-84
2022/02/07 02:10:14;;;;;;;392.98;112.78;;;8.10;99.90;;;;;;4899023;29;20469;-81
2022/02/07 02:12:56;;;;;;;392.70;112.30;;;8.10;99.90;;;;;;4898960;29;20025;-83
2022/02/07 02:45:23;;;;;;;360.52;101.47;;;8.30;99.90;;;;;;4897774;29;20033;-82
2022/02/07 02:47:05;;;;;;;359.80;104.22;;;8.30;99.90;;;;;;4898200;29;20462;-82
2022/02/07 02:49:43;;;;;;;347.05;104.43;;;8.30;99.90;;;;;;4896742;29;20017;-82
2022/02/07 02:52:08;;;;;;;357.33;107.07;;;8.30;99.90;;;;;;4896703;29;20049;-83
2022/02/07 02:54:34;;;;;;;359.00;103.35;;;8.30;99.90;;;;;;4897788;29;20025;-79
2022/02/07 02:57:00;;;;;;;326.45;103.30;;;8.30;99.90;;;;;;4897852;29;20088;-81
2022/02/07 02:59:25;;;;;;;328.20;104.03;;;8.30;99.90;;;;;;4898290;29;20028;-84
2022/02/07 03:01:51;;;;;;;321.85;100.18;;;8.20;99.90;;;;;;4898335;29;20111;-84
2022/02/07 03:04:17;;;;;;;335.33;101.47;;;8.20;99.90;;;;;;4898674;29;20032;-84
2022/02/07 03:06:43;;;;;;;311.27;95.72;;;8.20;99.90;;;;;;4897655;29;20028;-85
2022/02/07 03:09:13;;;;;;;320.42;96.20;;;8.30;99.90;;;;;;4880811;29;20087;-84
2022/02/07 03:11:40;;;;;;;309.95;95.68;;;8.30;99.90;;;;;;4897751;29;20025;-83
2022/02/07 03:14:06;;;;;;;321.05;98.97;;;8.30;99.90;;;;;;4881156;29;20385;-83
2022/02/07 03:16:38;;;;;;;313.48;98.40;;;8.20;99.90;;;;;;4898025;29;20044;-82
2022/02/07 03:19:05;;;;;;;;;;;8.20;99.90;;;;;;4898572;29;20107;-84
2022/02/07 03:21:31;;;;;;;286.92;92.30;;;8.20;99.90;;;;;;4881404;29;20317;-83
2022/02/07 03:23:56;;;;;;;307.58;96.55;;;8.20;99.90;;;;;;4898400;29;20038;-81
2022/02/07 03:26:23;;;;;;;292.08;95.32;;;8.20;99.90;;;;;;4897848;29;20028;-83
2022/02/07 03:28:49;;;;;;;287.30;94.18;;;8.20;99.90;;;;;;4898109;29;20235;-84
2022/02/07 03:31:19;;;;;;;272.13;87.47;;;8.30;99.90;;;;;;4896382;29;20029;-82
2022/02/07 03:33:45;;;;;;;255.60;86.65;;;8.30;99.90;;;;;;4880527;29;20029;-84
2022/02/07 03:36:14;;;;;;;242.98;85.15;;;8.30;99.90;;;;;;4897662;29;20088;-83
2022/02/07 03:38:40;;;;;;;237.20;84.88;;;8.30;99.90;;;;;;4897637;29;20031;-84
2022/02/07 03:41:08;;;;;;;248.27;85.47;;;8.30;99.90;;;;;;4898120;29;20465;-83
2022/02/07 03:43:33;;;;;;;228.27;81.43;;;8.40;99.90;;;;;;4897568;29;20460;-83
2022/02/07 03:46:02;;;;;;;219.50;83.15;;;8.40;99.90;;;;;;4880956;29;20107;-80
2022/02/07 03:48:28;;;;;;;232.48;83.75;;;8.40;99.90;;;;;;4897312;29;20032;-83
2022/02/07 03:50:53;;;;;;;219.30;80.78;;;8.40;99.90;;;;;;4895028;29;20028;-82
2022/02/07 03:53:19;;;;;;;234.45;81.53;;;8.50;99.90;;;;;;4897406;29;20051;-83
2022/02/07 03:55:44;;;;;;;219.85;78.22;;;8.50;99.90;;;;;;4894349;29;20103;-83
2022/02/07 03:58:10;;;;;;;219.45;79.38;;;8.50;99.90;;;;;;4862131;29;20029;-84
2022/02/07 04:00:36;;;;;;;234.02;81.10;;;8.50;99.90;;;;;;4879135;29;20029;-83
2022/02/07 04:03:07;;;;;;;199.82;75.90;;;8.50;99.90;;;;;;4878910;29;20184;-84
2022/02/07 04:08:09;;;;;;;201.23;76.55;;;8.60;99.90;;;;;;4878735;29;20029;-80
2022/02/07 04:10:43;;;;;;;206.10;76.60;;;8.60;99.90;;;;;;4862284;29;20049;-83
2022/02/07 04:13:10;;;;;;;204.95;75.68;;;8.60;99.90;;;;;;4893740;29;20420;-82
2022/02/07 04:15:36;;;;;;;190.32;73.72;;;8.60;99.90;;;;;;4897547;29;20477;-82
2022/02/07 04:18:06;;;;;;;215.45;76.70;;;8.60;99.90;;;;;;4897529;29;20036;-84
2022/02/07 04:20:32;;;;;;;198.75;76.35;;;8.60;99.90;;;;;;4897253;29;20032;-83
2022/02/07 04:22:58;;;;;;;199.95;73.97;;;8.70;99.90;;;;;;4896946;29;20044;-83
2022/02/07 04:25:23;;;;;;;184.90;74.47;;;8.70;99.90;;;;;;4896710;29;20081;-80
2022/02/07 04:27:49;;;;;;;179.10;71.53;;;8.70;99.90;;;;;;4897066;29;20028;-83
2022/02/07 04:30:15;;;;;;;177.48;72.22;;;8.70;99.90;;;;;;4897712;29;20076;-83
2022/02/07 04:32:40;;;;;;;194.15;69.60;;;8.70;99.90;;;;;;4897486;29;20519;-82
2022/02/07 04:35:06;;;;;;;182.38;70.95;;;8.70;99.90;;;;;;4896812;29;20028;-84
2022/02/07 04:37:32;;;;;;;179.50;73.07;;;8.70;99.90;;;;;;4896809;29;20056;-84
2022/02/07 04:39:58;;;;;;;197.00;74.03;;;8.80;99.90;;;;;;4897153;29;20025;-83
2022/02/07 04:42:26;;;;;;;217.55;79.82;;;8.70;99.90;;;;;;4880528;29;20032;-80
2022/02/07 04:45:17;;;;;;;208.40;78.75;;;8.70;99.90;;;;;;4895884;29;20031;-83
2022/02/07 04:47:58;;;;;;;215.07;81.20;;;8.70;99.90;;;;;;4896859;29;20557;-83
2022/02/07 04:53:39;;;;;;;206.52;80.07;;;8.80;99.90;;;;;;4900032;29;20454;-83
2022/02/07 04:56:16;;;;;;;213.13;79.28;;;8.70;99.90;;;;;;4898619;29;20488;-83
2022/02/07 04:58:57;;;;;;;198.05;79.85;;;8.80;99.90;;;;;;4900860;29;20033;-82
2022/02/07 05:01:34;;;;;;;203.40;78.78;;;8.80;99.90;;;;;;4901704;29;20035;-83
2022/02/07 05:04:07;;;;;;;217.80;82.70;;;8.80;99.90;;;;;;4900854;29;20111;-83
2022/02/07 05:14:50;;;;;;;210.15;80.78;;;8.80;99.90;;;;;;4900476;29;20044;-83
2022/02/07 05:17:16;;;;;;;244.52;93.15;;;8.80;99.90;;;;;;4899319;29;20474;-83
2022/02/07 05:19:42;;;;;;;246.25;96.97;;;8.80;99.90;;;;;;4900520;29;20025;-84
2022/02/07 05:22:08;;;;;;;260.50;101.13;;;8.70;99.90;;;;;;4900161;29;20497;-81
2022/02/07 05:24:34;;;;;;;265.63;101.07;;;8.70;99.90;;;;;;4900556;29;20020;-84
2022/02/07 05:26:59;;;;;;;243.75;98.28;;;8.60;99.90;;;;;;4900217;29;20375;-83
2022/02/07 05:29:25;;;;;;;264.67;103.35;;;8.60;99.90;;;;;;4900457;29;20033;-84
2022/02/07 05:31:52;;;;;;;257.10;101.72;;;8.50;99.90;;;;;;4900274;29;20385;-83
2022/02/07 05:34:18;;;;;;;252.75;100.57;;;8.50;99.90;;;;;;4899824;29;20104;-84
2022/02/07 05:36:45;;;;;;;265.50;102.55;;;8.50;99.90;;;;;;4898880;29;20029;-83
2022/02/07 05:39:17;;;;;;;260.35;97.75;;;8.50;99.90;;;;;;4899841;29;20029;-83
2022/02/07 05:41:43;;;;;;;;;;;8.50;99.90;;;;;;4900565;29;20092;-84
2022/02/07 05:44:09;;;;;;;246.65;96.07;;;8.50;99.90;;;;;;4899982;29;19916;-83
2022/02/07 05:46:35;;;;;;;257.15;100.47;;;8.50;99.90;;;;;;4900208;29;20112;-84
2022/02/07 05:49:01;;;;;;;278.55;101.28;;;8.40;99.90;;;;;;4900244;29;20099;-82
2022/02/07 05:51:26;;;;;;;265.00;101.63;;;8.40;99.90;;;;;;4899135;29;20045;-81
2022/02/07 05:53:52;;;;;;;260.35;100.82;;;8.40;99.90;;;;;;4899454;29;20036;-83
2022/02/07 05:56:17;;;;;;;242.10;99.90;;;8.40;99.90;;;;;;4898922;29;20028;-83
2022/02/07 05:58:43;;;;;;;247.75;98.78;;;8.40;99.90;;;;;;4899241;29;20107;-83
2022/02/07 06:01:09;;;;;;;241.20;96.43;;;8.40;99.90;;;;;;4899468;29;20037;-83
2022/02/07 06:03:35;;;;;;;250.77;96.38;;;8.40;99.90;;;;;;4899787;29;20040;-82
2022/02/07 06:06:01;;;;;;;267.20;99.43;;;8.40;99.90;;;;;;4898626;29;20112;-83
2022/02/07 06:08:26;;;;;;;258.77;98.75;;;8.40;99.90;;;;;;4899417;29;20020;-84
2022/02/07 06:10:52;;;;;;;246.90;97.15;;;8.40;99.90;;;;;;4899300;29;20492;-85
2022/02/07 06:13:19;;;;;;;259.42;99.63;;;8.40;99.90;;;;;;4899326;29;20043;-81
2022/02/07 06:15:45;;;;;;;253.07;96.03;;;8.40;99.90;;;;;;4899207;29;20489;-80
2022/02/07 06:18:15;;;;;;;243.50;94.78;;;8.40;99.90;;;;;;4897416;29;20028;-81
2022/02/07 06:20:40;;;;;;;235.52;94.80;;;8.40;99.90;;;;;;4899169;29;20032;-81
2022/02/07 06:23:06;;;;;;;251.07;97.40;;;8.40;99.90;;;;;;4898937;29;20393;-81
2022/02/07 06:25:32;;;;;;;245.48;96.47;;;8.40;99.90;;;;;;4899516;29;20025;-79
2022/02/07 06:27:58;;;;;;;245.50;96.88;;;8.40;99.90;;;;;;4899550;29;20130;-84
2022/02/07 06:30:23;;;;;;;247.77;97.82;;;8.40;99.90;;;;;;4899322;29;20073;-84
2022/02/07 06:32:49;;;;;;;243.70;94.68;;;8.40;99.90;;;;;;4899336;29;20028;-83
2022/02/07 06:35:15;;;;;;;216.35;92.72;;;8.40;99.90;;;;;;4897650;29;20077;-77
2022/02/07 06:37:41;;;;;;;230.77;92.63;;;8.40;99.90;;;;;;4897969;29;20032;-82
2022/02/07 06:40:08;;;;;;;219.10;90.85;;;8.40;99.90;;;;;;4899152;29;20025;-79
2022/02/07 06:42:33;;;;;;;210.70;87.22;;;8.40;99.90;;;;;;4888071;29;20033;-83
2022/02/07 06:44:59;;;;;;;216.32;87.53;;;8.40;99.90;;;;;;4897772;29;20072;-81
2022/02/07 06:47:25;;;;;;;225.18;89.05;;;8.40;99.90;;;;;;4899077;29;20112;-79
2022/02/07 06:49:51;;;;;;;216.55;90.43;;;8.40;99.90;;;;;;4898579;29;20028;-80
2022/02/07 06:52:17;;;;;;;216.88;91.90;;;8.30;99.90;;;;;;4898903;29;20055;-80
2022/02/07 06:54:42;;;;;;;230.63;92.45;;;8.20;99.90;;;;;;4898855;29;20029;-83
2022/02/07 06:57:08;;;;;;;233.50;92.00;;;8.20;99.90;;;;;;4897608;29;20021;-80
2022/02/07 06:59:40;;;;;;;238.55;94.20;;;8.20;99.90;;;;;;4898604;29;20028;-79
2022/02/07 07:02:06;;;;;;;231.52;94.03;;;8.30;99.90;;;;;;4898213;29;20044;-80
2022/02/07 07:04:32;;;;;;;242.02;93.90;;;8.30;99.90;;;;;;4880938;29;20024;-80
2022/02/07 07:06:57;;;;;;;226.68;92.93;;;8.30;99.90;;;;;;4897814;29;20525;-81
2022/02/07 07:09:23;;;;;;;234.50;96.07;;;8.30;99.90;;;;;;4896593;29;20035;-85
2022/02/07 07:11:49;;;;;;;230.98;95.78;;;8.40;99.90;;;;;;4898045;29;20037;-84
2022/02/07 07:14:29;;;;;;;235.48;92.22;;;8.40;99.90;;;;;;4897709;29;20056;-81
2022/02/07 07:16:55;;;;;;;211.85;85.72;;;8.40;99.90;;;;;;4898142;29;20024;-80
2022/02/07 07:19:21;;;;;;;212.65;87.13;;;8.50;99.90;;;;;;4898392;29;20378;-83
2022/02/07 07:21:48;;;;;;;202.15;86.90;;;8.50;99.90;;;;;;4898615;29;20108;-85
2022/02/07 07:24:16;;;;;;;203.77;85.20;;;8.50;99.90;;;;;;4898937;29;20039;-84
2022/02/07 07:26:42;;;;;;;197.85;80.28;;;8.50;99.90;;;;;;4900094;29;20021;-84
2022/02/07 07:29:12;;;;;;;188.68;79.47;;;8.60;99.90;;;;;;4898015;29;20104;-84
2022/02/07 07:31:43;;;;;;;190.00;81.18;;;8.60;99.90;;;;;;4898617;29;20032;-84
2022/02/07 07:34:09;;;;;;;194.60;80.85;;;8.60;99.90;;;;;;4898853;29;20024;-85
2022/02/07 07:36:35;;;;;;;199.07;80.97;;;8.60;99.90;;;;;;4898415;29;20033;-84
2022/02/07 07:39:00;;;;;;;199.90;77.68;;;8.50;99.90;;;;;;4898476;29;20028;-84
2022/02/07 07:41:27;;;;;;;172.93;71.88;;;8.40;99.90;;;;;;4897981;29;20071;-85
2022/02/07 07:43:53;;;;;;;171.60;68.15;;;8.40;99.90;;;;;;4897901;29;20039;-84
2022/02/07 07:46:25;;;;;;;163.48;68.35;;;8.40;99.90;;;;;;4898238;29;20037;-85
2022/02/07 07:48:58;;;;;;;155.40;64.78;;;8.50;99.90;;;;;;4898282;29;20108;-85
2022/02/07 08:02:11;;;;;;;127.22;58.17;;;9.20;99.90;;;;;;4897915;29;20088;-84
2022/02/07 08:04:39;;;;;;;109.07;53.45;;;10.10;99.90;;;;;;4898136;29;20025;-81
2022/02/07 08:07:31;;;;;;;95.95;44.08;;;11.20;99.90;;;;;;4897772;29;20478;-85
2022/02/07 08:10:26;;;;;;;81.45;40.35;;;12.30;99.90;;;;;;4897287;29;20045;-82
2022/02/07 08:12:52;;;;;;;114.38;55.05;;;13.30;99.90;;;;;;4898001;29;20028;-85
2022/02/07 08:15:18;;;;;;;106.53;54.65;;;14.30;99.90;;;;;;4897736;29;20025;-80
2022/02/07 08:17:44;;;;;;;96.30;51.85;;;15.10;99.90;;;;;;4898110;29;20036;-85
2022/02/07 08:20:11;;;;;;;102.88;50.70;;;16.00;99.90;;;;;;4897985;29;20029;-85
2022/02/07 08:22:36;;;;;;;92.32;49.92;;;16.60;99.90;;;;;;4881199;29;20037;-85
2022/02/07 08:25:03;;;;;;;96.13;49.85;;;16.70;99.90;;;;;;4898034;29;20025;-85
2022/02/07 08:27:30;;;;;;;83.65;46.08;;;16.70;99.90;;;;;;4897517;29;20040;-84
2022/02/07 08:29:58;;;;;;;67.03;37.80;;;16.40;99.90;;;;;;4897767;29;20362;-82
2022/02/07 08:32:24;;;;;;;92.80;49.67;;;15.80;99.90;;;;;;4896564;29;20036;-81
2022/02/07 08:34:50;;;;;;;103.18;54.20;;;15.10;99.90;;;;;;4897435;29;20029;-82
2022/02/07 08:37:16;;;;;;;105.15;53.60;;;14.50;99.90;;;;;;4897485;29;20036;-87
2022/02/07 08:39:42;;;;;;;115.65;56.10;;;13.90;99.90;;;;;;4896982;29;20037;-82
2022/02/07 08:42:09;;;;;;;107.43;55.30;;;13.30;99.90;;;;;;4897259;29;20549;-84
2022/02/07 08:44:35;;;;;;;118.90;57.95;;;12.70;99.90;;;;;;4896251;29;20393;-79
2022/02/07 08:47:01;;;;;;;117.40;56.55;;;12.40;99.90;;;;;;4897001;29;20064;-83
2022/02/07 08:49:27;;;;;;;121.97;59.95;;;12.00;99.90;;;;;;4897688;29;20451;-85
2022/02/07 08:51:52;;;;;;;118.82;60.45;;;11.70;99.90;;;;;;4897133;29;20044;-83
2022/02/07 08:54:24;;;;;;;122.75;60.05;;;11.60;99.90;;;;;;4897634;29;20104;-85
2022/02/07 08:59:19;;;;;;;124.63;58.70;;;11.30;99.90;;;;;;4896979;29;20025;-80
2022/02/07 09:02:04;;;;;;;118.70;58.22;;;11.30;99.90;;;;;;4897518;29;20068;-85
2022/02/07 09:07:11;;;;;;;101.70;51.08;;;13.20;99.90;;;;;;4897852;29;20367;-84
2022/02/07 09:09:40;;;;;;;107.57;54.72;;;15.10;99.90;;;;;;4897028;29;20029;-87
2022/02/07 09:12:07;;;;;;;103.13;51.40;;;16.20;99.90;;;;;;4897046;29;20107;-83
2022/02/07 09:14:33;;;;;;;106.80;50.70;;;16.50;99.90;;;;;;4896426;29;20032;-83
2022/02/07 09:16:58;;;;;;;99.30;50.25;;;15.80;99.90;;;;;;4896142;29;20025;-89
2022/02/07 09:19:24;;;;;;;95.53;49.63;;;15.50;99.90;;;;;;4896805;29;20079;-79
2022/02/07 09:21:50;;;;;;;95.38;48.35;;;16.20;99.90;;;;;;4897136;29;20033;-82
2022/02/07 09:24:16;;;;;;;85.10;44.38;;;17.40;99.90;;;;;;4896112;29;20032;-82
2022/02/07 09:26:42;;;;;;;81.93;43.38;;;18.60;99.90;;;;;;4895715;29;20043;-80
2022/02/07 09:29:08;;;;;;;78.13;41.90;;;19.70;99.90;;;;;;4895497;29;20021;-81
2022/02/07 09:31:34;;;;;;;80.07;43.30;;;20.30;99.90;;;;;;4896015;29;20031;-85
2022/02/07 09:34:00;;;;;;;78.93;42.85;;;20.60;99.90;;;;;;4889962;29;20029;-85
2022/02/07 09:36:26;;;;;;;73.53;43.13;;;20.80;99.90;;;;;;4893163;29;20032;-84
2022/02/07 09:38:53;;;;;;;73.75;42.30;;;20.70;99.90;;;;;;4899423;29;20031;-79
2022/02/07 09:41:21;;;;;;;79.95;42.72;;;20.40;99.90;;;;;;4882056;29;20028;-82
2022/02/07 09:43:49;;;;;;;76.80;44.13;;;20.00;99.90;;;;;;4900222;29;20039;-83
2022/02/07 09:46:21;;;;;;;77.22;41.22;;;19.70;99.90;;;;;;4900542;29;20020;-84
2022/02/07 09:48:51;;;;;;;81.25;44.67;;;19.30;99.90;;;;;;4883490;29;20028;-87
2022/02/07 09:51:17;;;;;;;75.57;45.03;;;19.00;99.90;;;;;;4900739;29;20055;-88
2022/02/07 09:53:43;;;;;;;81.63;47.83;;;18.80;99.90;;;;;;4903162;29;20035;-88
2022/02/07 09:56:11;;;;;;;77.53;45.85;;;18.50;99.90;;;;;;4883799;29;20393;-83
2022/02/07 09:58:39;;;;;;;110.00;45.00;;;18.50;99.90;;;;;;4894053;29;20017;-80
2022/02/07 10:01:15;;;;;;;71.95;40.88;;;18.60;99.90;;;;;;4885614;29;20411;-92
2022/02/07 10:04:07;;;;;;;72.80;41.25;;;18.70;99.90;;;;;;4896348;29;20092;-88
2022/02/07 10:23:07;;;;;;;81.47;44.05;;;17.60;99.90;;;;;;4896765;29;20288;-85
2022/02/07 10:40:30;;;;;;;71.50;37.10;;;17.80;99.90;;;;;;4841880;29;20066;-83
2022/02/07 10:43:16;;;;;;;54.45;29.33;;;17.80;99.90;;;;;;4886763;29;20044;-83
2022/02/07 10:46:16;;;;;;;59.78;31.48;;;17.80;99.90;;;;;;4898542;29;20466;-86
2022/02/07 10:48:50;;;;;;;56.88;29.63;;;17.90;99.90;;;;;;4897941;29;20063;-86
2022/02/07 10:51:28;;;;;;;42.55;18.25;;;17.80;99.90;;;;;;4899077;29;20044;-85
2022/02/07 10:54:05;;;;;;;66.88;36.70;;;17.90;99.90;;;;;;4899140;29;20405;-84
2022/02/07 10:56:41;;;;;;;64.30;36.90;;;17.50;99.90;;;;;;4898846;29;20028;-85
2022/02/07 10:59:10;;;;;;;67.20;35.30;;;17.20;99.90;;;;;;4898681;29;20084;-83
2022/02/07 11:04:37;;;;;;;36.30;12.80;;;16.80;99.90;;;;;;4898862;29;20029;-83
2022/02/07 11:07:03;;;;;;;5.63;2.55;;;16.60;99.90;;;;;;4898887;29;20069;-85
2022/02/07 11:14:59;;;;;;;4.95;0.77;;;17.30;90.20;;;;;;4899058;29;20067;-83
2022/02/07 11:20:35;;;;;;;1.73;0.80;;;17.60;82.10;;;;;;4898837;29;20056;-81
2022/02/07 11:23:25;;;;;;;4.30;0.90;;;17.60;81.30;;;;;;4899271;29;20033;-84
2022/02/07 11:26:04;;;;;;;3.67;1.42;;;17.70;80.70;;;;;;4898547;29;20024;-86
2022/02/07 11:28:38;;;;;;;4.00;0.90;;;17.80;82.00;;;;;;4898570;29;20031;-85
2022/02/07 11:31:05;;;;;;;2.83;1.23;;;17.50;80.40;;;;;;4898569;29;20020;-82
2022/02/07 11:33:58;;;;;;;8.40;1.00;;;17.40;78.40;;;;;;4898731;29;20032;-84
2022/02/07 11:36:30;;;;;;;7.22;1.30;;;17.10;78.30;;;;;;4898552;29;20351;-82
2022/02/07 11:39:18;;;;;;;10.68;1.40;;;17.10;78.80;;;;;;4898336;29;20033;-80
2022/02/07 11:41:56;;;;;;;2.42;1.35;;;17.10;79.20;;;;;;4898525;29;20084;-82
2022/02/07 11:44:30;;;;;;;6.72;1.70;;;17.10;80.70;;;;;;4881578;29;20024;-82
2022/02/07 11:47:15;;;;;;;8.57;1.73;;;17.20;79.70;;;;;;4898128;29;20028;-81
2022/02/07 11:49:42;;;;;;;2.75;1.58;;;17.10;78.80;;;;;;4898162;29;20115;-81
2022/02/07 11:52:40;;;;;;;8.63;1.30;;;17.00;78.20;;;;;;4898185;29;20067;-81
2022/02/07 11:55:12;;;;;;;6.03;1.58;;;17.10;79.60;;;;;;4885256;29;20048;-81
2022/02/07 11:57:43;;;;;;;2.33;0.77;;;17.10;76.20;;;;;;4897519;29;20040;-80
2022/02/07 12:00:18;;;;;;;1.30;0.70;;;17.00;72.20;;;;;;4895944;29;20489;-80
2022/02/07 12:02:49;;;;;;;1.63;0.70;;;16.90;70.40;;;;;;4896437;29;20402;-80
2022/02/07 12:05:19;;;;;;;1.45;0.68;;;16.70;67.10;;;;;;4897573;29;20028;-80
2022/02/07 12:08:04;;;;;;;9.13;1.48;;;16.50;66.60;;;;;;4896652;29;20478;-82
2022/02/07 12:13:04;;;;;;;6.05;0.70;;;16.50;69.20;;;;;;4897425;29;20029;-82
2022/02/07 12:18:01;;;;;;;2.65;0.60;;;16.30;66.30;;;;;;4897738;29;20028;-83
2022/02/07 12:20:32;;;;;;;2.88;0.60;;;16.20;65.10;;;;;;4897803;29;20036;-82
2022/02/07 12:23:04;;;;;;;2.08;0.70;;;16.10;63.70;;;;;;4895518;29;20036;-83
2022/02/07 12:25:44;;;;;;;4.65;0.90;;;16.00;63.20;;;;;;4896923;29;20164;-84
2022/02/07 12:31:11;;;;;;;4.38;0.73;;;15.70;64.00;;;;;;4896980;29;20355;-84
2022/02/07 12:33:39;;;;;;;4.60;1.20;;;15.80;64.90;;;;;;4896929;29;20556;-84
2022/02/07 12:36:06;;;;;;;5.97;1.20;;;15.60;63.90;;;;;;4880045;29;20024;-84
2022/02/07 12:38:38;;;;;;;1.27;0.70;;;15.50;64.20;;;;;;4894995;29;20433;-85
2022/02/07 12:41:07;;;;;;;1.80;0.80;;;15.30;62.50;;;;;;4880444;29;20029;-84
2022/02/07 12:43:35;;;;;;;2.30;0.75;;;15.20;61.90;;;;;;4895339;29;20048;-84
2022/02/07 12:46:06;;;;;;;9.68;1.55;;;15.10;63.00;;;;;;4896627;29;20025;-85
2022/02/07 12:48:36;;;;;;;5.85;1.63;;;15.00;63.10;;;;;;4896501;29;20116;-84
2022/02/07 12:51:02;;;;;;;3.40;1.13;;;14.80;63.20;;;;;;4895129;29;20111;-83
2022/02/07 12:53:29;;;;;;;3.95;0.88;;;14.70;63.20;;;;;;4877804;29;20037;-83
2022/02/07 12:56:00;;;;;;;1.33;0.75;;;14.60;62.60;;;;;;4877764;29;20072;-83
2022/02/07 12:58:36;;;;;;;6.22;1.00;;;14.50;62.10;;;;;;4876480;29;20032;-83
2022/02/07 13:01:20;;;;;;;1.20;0.77;;;14.40;61.00;;;;;;4877644;29;20057;-83
2022/02/07 13:03:51;;;;;;;4.00;1.90;;;14.30;61.70;;;;;;4870822;29;20037;-84
2022/02/07 13:06:17;;;;;;;3.33;1.42;;;14.20;62.90;;;;;;4877411;29;20045;-83
2022/02/07 13:08:47;;;;;;;2.15;0.82;;;14.20;61.10;;;;;;4877599;29;20093;-83
2022/02/07 13:11:24;;;;;;;5.88;1.15;;;14.10;60.60;;;;;;4862559;29;20021;-83
2022/02/07 13:13:54;;;;;;;3.60;1.10;;;14.10;61.40;;;;;;4864580;29;20103;-83
2022/02/07 13:16:21;;;;;;;2.92;1.10;;;14.00;60.40;;;;;;4881229;29;20044;-85
2022/02/07 13:18:48;;;;;;;3.13;0.80;;;14.00;59.80;;;;;;4881366;29;20056;-83
2022/02/07 13:21:17;;;;;;;3.78;1.10;;;14.00;59.80;;;;;;4881253;29;20080;-84
2022/02/07 13:23:46;;;;;;;5.25;1.23;;;14.00;60.50;;;;;;4880472;29;20069;-84
2022/02/07 13:26:14;;;;;;;1.65;1.00;;;14.10;61.80;;;;;;4864011;29;20397;-84
2022/02/07 13:28:40;;;;;;;8.68;2.45;;;14.00;63.70;;;;;;4880426;29;20538;-84
2022/02/07 13:31:07;;;;;;;11.57;3.28;;;14.00;65.10;;;;;;4881027;29;20033;-84
2022/02/07 13:33:54;;;;;;;3.05;1.50;;;14.00;63.90;;;;;;4880643;29;20071;-85
2022/02/07 13:36:49;;;;;;;2.00;0.82;;;14.00;62.20;;;;;;4880496;29;20026;-85
2022/02/07 13:39:17;;;;;;;2.28;1.20;;;13.90;59.70;;;;;;4878147;29;20119;-86
2022/02/07 13:41:43;;;;;;;3.55;0.85;;;13.80;59.60;;;;;;4881203;29;20025;-87
2022/02/07 13:44:09;;;;;;;3.08;0.77;;;13.80;60.60;;;;;;4864326;29;20036;-86
2022/02/07 13:46:37;;;;;;;3.88;0.98;;;13.80;64.00;;;;;;4881251;29;20466;-89
2022/02/07 13:49:03;;;;;;;3.20;1.10;;;13.70;64.70;;;;;;4881074;29;20067;-85
2022/02/07 13:51:30;;;;;;;3.00;0.80;;;13.70;65.30;;;;;;4885840;29;20068;-86
2022/02/07 13:53:57;;;;;;;3.17;0.98;;;13.60;65.70;;;;;;4899499;29;20036;-86
2022/02/07 13:56:33;;;;;;;2.50;0.77;;;13.50;67.00;;;;;;4899469;29;20077;-86
2022/02/07 13:59:15;;;;;;;6.57;0.90;;;13.50;67.50;;;;;;4897462;29;20036;-84
2022/02/07 14:01:42;;;;;;;;;;;13.40;66.00;;;;;;4898050;29;20036;-83
2022/02/07 14:04:24;;;;;;;2.88;1.65;;;13.40;68.20;;;;;;4899241;29;19920;-83
2022/02/07 14:07:11;;;;;;;8.93;1.65;;;13.40;71.20;;;;;;4896401;29;20548;-84
2022/02/07 14:09:39;;;;;;;5.10;1.17;;;13.30;77.40;;;;;;4898712;29;20038;-83
2022/02/07 14:12:06;;;;;;;2.75;1.23;;;13.40;75.60;;;;;;4897911;29;20029;-82
2022/02/07 14:14:32;;;;;;;16.20;1.40;;;13.40;76.10;;;;;;4897581;29;20486;-82
2022/02/07 14:16:58;;;;;;;6.13;1.90;;;13.30;75.50;;;;;;4898790;29;20032;-84
2022/02/07 14:19:41;;;;;;;7.15;1.30;;;13.40;78.50;;;;;;4897836;29;20028;-85
2022/02/07 14:22:09;;;;;;;4.80;1.15;;;13.40;76.10;;;;;;4897622;29;20099;-82
2022/02/07 14:24:35;;;;;;;4.13;1.30;;;13.40;77.10;;;;;;4897773;29;20095;-84
2022/02/07 14:27:02;;;;;;;3.88;1.58;;;13.30;76.60;;;;;;4914580;23;20040;-83
2022/02/07 14:29:28;;;;;;;5.93;1.58;;;13.30;77.70;;;;;;4900967;29;20115;-81
2022/02/07 14:31:53;;;;;;;10.23;1.67;;;13.20;79.80;;;;;;4916704;29;20067;-82
2022/02/07 14:34:19;;;;;;;9.05;1.60;;;13.10;81.40;;;;;;4916796;29;20028;-85
2022/02/07 14:36:45;;;;;;;7.43;0.93;;;13.00;78.50;;;;;;4918340;29;20121;-83
2022/02/07 14:39:11;;;;;;;16.83;1.50;;;12.90;77.60;;;;;;4914728;29;20037;-86
2022/02/07 14:41:37;;;;;;;4.38;1.13;;;12.90;77.80;;;;;;4925694;29;20118;-81
2022/02/07 14:44:33;;;;;;;5.63;1.30;;;12.80;77.10;;;;;;4918967;29;20032;-80
2022/02/07 14:47:06;;;;;;;4.45;1.23;;;12.70;76.50;;;;;;4912464;29;20032;-84
2022/02/07 14:49:32;;;;;;;3.88;1.50;;;12.60;76.40;;;;;;4919087;29;20063;-86
2022/02/07 14:52:02;;;;;;;15.10;1.58;;;12.60;76.10;;;;;;4919396;29;20027;-83
2022/02/07 14:54:30;;;;;;;9.15;1.52;;;12.50;77.30;;;;;;4914541;29;20035;-81
2022/02/07 14:56:56;;;;;;;3.13;1.30;;;12.40;78.10;;;;;;4913531;29;20034;-78
2022/02/07 14:59:25;;;;;;;10.18;1.40;;;12.40;79.20;;;;;;4904734;29;20039;-85
2022/02/07 15:01:55;;;;;;;12.25;3.05;;;12.40;79.50;;;;;;4921623;29;20095;-86
2022/02/07 15:04:22;;;;;;;5.28;1.42;;;12.30;78.60;;;;;;4905395;29;20122;-85
2022/02/07 15:06:51;;;;;;;4.40;1.30;;;12.30;78.00;;;;;;4922508;29;20016;-87
2022/02/07 15:09:18;;;;;;;4.78;1.70;;;12.30;77.20;;;;;;4897599;29;20028;-84
2022/02/07 15:11:45;;;;;;;6.30;1.48;;;12.30;77.20;;;;;;4905618;29;20032;-84